sensor_id;sensor_type;location;lat;lon;timestamp;P1;durP1;ratioP1;P2;durP2;ratioP2
20229;SDS011;12195;55.790;37.572;2023-11-19T00:01:56;14.40;;;5.03;;
20229;SDS011;12195;55.790;37.572;2023-11-19T00:04:28;9.83;;;5.12;;
20229;SDS011;12195;55.790;37.572;2023-11-19T00:07:02;9.00;;;4.97;;
20229;SDS011;12195;55.790;37.572;2023-11-19T00:09:36;9.98;;;3.95;;
20229;SDS011;12195;55.790;37.572;2023-11-19T00:12:10;12.30;;;4.67;;
20229;SDS011;12195;55.790;37.572;2023-11-19T00:14:44;12.40;;;4.85;;
20229;SDS011;12195;55.790;37.572;2023-11-19T00:17:17;10.28;;;4.92;;
20229;SDS011;12195;55.790;37.572;2023-11-19T00:19:49;10.93;;;4.45;;
20229;SDS011;12195;55.790;37.572;2023-11-19T00:22:24;9.08;;;4.58;;
20229;SDS011;12195;55.790;37.572;2023-11-19T00:24:56;20.40;;;4.87;;
20229;SDS011;12195;55.790;37.572;2023-11-19T00:27:30;9.08;;;4.40;;
20229;SDS011;12195;55.790;37.572;2023-11-19T00:30:03;14.28;;;4.92;;
20229;SDS011;12195;55.790;37.572;2023-11-19T00:32:38;8.33;;;4.45;;
20229;SDS011;12195;55.790;37.572;2023-11-19T00:35:11;9.75;;;4.58;;
20229;SDS011;12195;55.790;37.572;2023-11-19T00:37:48;12.73;;;4.72;;
20229;SDS011;12195;55.790;37.572;2023-11-19T00:40:20;9.15;;;4.30;;
20229;SDS011;12195;55.790;37.572;2023-11-19T00:42:54;7.65;;;4.42;;
20229;SDS011;12195;55.790;37.572;2023-11-19T00:45:28;12.95;;;4.90;;
20229;SDS011;12195;55.790;37.572;2023-11-19T00:48:01;15.98;;;5.90;;
20229;SDS011;12195;55.790;37.572;2023-11-19T00:50:35;14.65;;;5.45;;
20229;SDS011;12195;55.790;37.572;2023-11-19T00:53:10;10.13;;;5.10;;
20229;SDS011;12195;55.790;37.572;2023-11-19T00:55:43;9.53;;;5.30;;
20229;SDS011;12195;55.790;37.572;2023-11-19T00:58:17;17.50;;;5.85;;
20229;SDS011;12195;55.790;37.572;2023-11-19T01:00:50;11.45;;;5.10;;
20229;SDS011;12195;55.790;37.572;2023-11-19T01:03:23;19.10;;;6.97;;
20229;SDS011;12195;55.790;37.572;2023-11-19T01:05:57;14.60;;;5.28;;
20229;SDS011;12195;55.790;37.572;2023-11-19T01:08:32;14.87;;;5.30;;
20229;SDS011;12195;55.790;37.572;2023-11-19T01:11:06;12.23;;;4.58;;
20229;SDS011;12195;55.790;37.572;2023-11-19T01:13:39;11.33;;;4.90;;
20229;SDS011;12195;55.790;37.572;2023-11-19T01:16:14;10.25;;;4.97;;
20229;SDS011;12195;55.790;37.572;2023-11-19T01:18:47;10.35;;;4.65;;
20229;SDS011;12195;55.790;37.572;2023-11-19T01:21:21;12.75;;;5.08;;
20229;SDS011;12195;55.790;37.572;2023-11-19T01:23:55;11.88;;;4.90;;
20229;SDS011;12195;55.790;37.572;2023-11-19T01:26:27;11.90;;;4.90;;
20229;SDS011;12195;55.790;37.572;2023-11-19T01:29:00;9.88;;;6.00;;
20229;SDS011;12195;55.790;37.572;2023-11-19T01:31:32;14.95;;;4.65;;
20229;SDS011;12195;55.790;37.572;2023-11-19T01:34:05;9.60;;;5.00;;
20229;SDS011;12195;55.790;37.572;2023-11-19T01:36:38;11.73;;;6.03;;
20229;SDS011;12195;55.790;37.572;2023-11-19T01:39:10;14.93;;;5.42;;
20229;SDS011;12195;55.790;37.572;2023-11-19T01:41:45;12.28;;;4.95;;
20229;SDS011;12195;55.790;37.572;2023-11-19T01:44:18;8.73;;;4.20;;
20229;SDS011;12195;55.790;37.572;2023-11-19T01:46:50;11.55;;;5.37;;
20229;SDS011;12195;55.790;37.572;2023-11-19T01:49:24;7.92;;;4.00;;
20229;SDS011;12195;55.790;37.572;2023-11-19T01:51:57;11.73;;;4.62;;
20229;SDS011;12195;55.790;37.572;2023-11-19T01:54:33;14.78;;;5.70;;
20229;SDS011;12195;55.790;37.572;2023-11-19T01:57:05;12.50;;;5.62;;
20229;SDS011;12195;55.790;37.572;2023-11-19T01:59:38;10.38;;;4.95;;
20229;SDS011;12195;55.790;37.572;2023-11-19T02:02:12;11.43;;;5.20;;
20229;SDS011;12195;55.790;37.572;2023-11-19T02:04:49;11.55;;;4.28;;
20229;SDS011;12195;55.790;37.572;2023-11-19T02:07:23;13.83;;;5.83;;
20229;SDS011;12195;55.790;37.572;2023-11-19T02:09:56;8.37;;;4.33;;
20229;SDS011;12195;55.790;37.572;2023-11-19T02:12:33;13.93;;;5.75;;
20229;SDS011;12195;55.790;37.572;2023-11-19T02:15:06;14.45;;;5.50;;
20229;SDS011;12195;55.790;37.572;2023-11-19T02:17:39;12.50;;;6.10;;
20229;SDS011;12195;55.790;37.572;2023-11-19T02:20:12;16.35;;;6.22;;
20229;SDS011;12195;55.790;37.572;2023-11-19T02:22:51;10.58;;;5.17;;
20229;SDS011;12195;55.790;37.572;2023-11-19T02:25:22;14.25;;;5.45;;
20229;SDS011;12195;55.790;37.572;2023-11-19T02:27:57;12.63;;;5.15;;
20229;SDS011;12195;55.790;37.572;2023-11-19T02:30:31;9.98;;;5.05;;
20229;SDS011;12195;55.790;37.572;2023-11-19T02:33:04;10.65;;;5.85;;
20229;SDS011;12195;55.790;37.572;2023-11-19T02:35:37;13.32;;;4.90;;
20229;SDS011;12195;55.790;37.572;2023-11-19T02:38:11;9.73;;;5.30;;
20229;SDS011;12195;55.790;37.572;2023-11-19T02:40:44;8.80;;;5.60;;
20229;SDS011;12195;55.790;37.572;2023-11-19T02:43:17;13.77;;;6.50;;
20229;SDS011;12195;55.790;37.572;2023-11-19T02:45:50;14.87;;;7.58;;
20229;SDS011;12195;55.790;37.572;2023-11-19T02:48:24;15.00;;;6.78;;
20229;SDS011;12195;55.790;37.572;2023-11-19T02:50:57;18.75;;;6.60;;
20229;SDS011;12195;55.790;37.572;2023-11-19T02:53:30;10.98;;;5.30;;
20229;SDS011;12195;55.790;37.572;2023-11-19T02:56:03;14.18;;;6.20;;
20229;SDS011;12195;55.790;37.572;2023-11-19T02:58:50;17.87;;;6.83;;
20229;SDS011;12195;55.790;37.572;2023-11-19T03:01:23;13.18;;;6.28;;
20229;SDS011;12195;55.790;37.572;2023-11-19T03:04:04;19.62;;;6.72;;
20229;SDS011;12195;55.790;37.572;2023-11-19T03:06:37;12.40;;;5.27;;
20229;SDS011;12195;55.790;37.572;2023-11-19T03:09:10;24.90;;;6.78;;
20229;SDS011;12195;55.790;37.572;2023-11-19T03:11:43;17.73;;;7.85;;
20229;SDS011;12195;55.790;37.572;2023-11-19T03:14:15;21.82;;;7.50;;
20229;SDS011;12195;55.790;37.572;2023-11-19T03:16:49;15.03;;;7.03;;
20229;SDS011;12195;55.790;37.572;2023-11-19T03:19:22;13.95;;;6.72;;
20229;SDS011;12195;55.790;37.572;2023-11-19T03:21:55;21.52;;;10.32;;
20229;SDS011;12195;55.790;37.572;2023-11-19T03:24:29;22.77;;;7.22;;
20229;SDS011;12195;55.790;37.572;2023-11-19T03:27:03;16.48;;;7.33;;
20229;SDS011;12195;55.790;37.572;2023-11-19T03:29:35;25.12;;;8.43;;
20229;SDS011;12195;55.790;37.572;2023-11-19T03:32:09;18.90;;;7.70;;
20229;SDS011;12195;55.790;37.572;2023-11-19T03:34:42;20.12;;;8.83;;
20229;SDS011;12195;55.790;37.572;2023-11-19T03:37:15;19.10;;;8.13;;
20229;SDS011;12195;55.790;37.572;2023-11-19T03:39:48;23.40;;;7.90;;
20229;SDS011;12195;55.790;37.572;2023-11-19T03:42:21;21.48;;;8.18;;
20229;SDS011;12195;55.790;37.572;2023-11-19T03:44:56;25.48;;;9.15;;
20229;SDS011;12195;55.790;37.572;2023-11-19T03:47:30;24.92;;;9.30;;
20229;SDS011;12195;55.790;37.572;2023-11-19T03:50:04;26.10;;;11.10;;
20229;SDS011;12195;55.790;37.572;2023-11-19T03:52:39;28.52;;;9.95;;
20229;SDS011;12195;55.790;37.572;2023-11-19T03:55:14;22.00;;;9.10;;
20229;SDS011;12195;55.790;37.572;2023-11-19T03:57:47;28.03;;;11.47;;
20229;SDS011;12195;55.790;37.572;2023-11-19T04:00:20;26.73;;;8.58;;
20229;SDS011;12195;55.790;37.572;2023-11-19T04:02:53;12.35;;;5.70;;
20229;SDS011;12195;55.790;37.572;2023-11-19T04:05:26;15.95;;;6.67;;
20229;SDS011;12195;55.790;37.572;2023-11-19T04:07:59;13.43;;;5.55;;
20229;SDS011;12195;55.790;37.572;2023-11-19T04:10:31;14.30;;;6.00;;
20229;SDS011;12195;55.790;37.572;2023-11-19T04:13:04;11.20;;;5.27;;
20229;SDS011;12195;55.790;37.572;2023-11-19T04:15:37;16.97;;;6.30;;
20229;SDS011;12195;55.790;37.572;2023-11-19T04:18:10;25.00;;;8.20;;
20229;SDS011;12195;55.790;37.572;2023-11-19T04:20:43;19.07;;;7.53;;
20229;SDS011;12195;55.790;37.572;2023-11-19T04:23:15;17.73;;;7.90;;
20229;SDS011;12195;55.790;37.572;2023-11-19T04:25:48;24.73;;;5.40;;
20229;SDS011;12195;55.790;37.572;2023-11-19T04:28:21;17.02;;;6.53;;
20229;SDS011;12195;55.790;37.572;2023-11-19T04:30:56;12.45;;;6.00;;
20229;SDS011;12195;55.790;37.572;2023-11-19T04:33:30;23.95;;;6.62;;
20229;SDS011;12195;55.790;37.572;2023-11-19T04:36:03;12.98;;;6.53;;
20229;SDS011;12195;55.790;37.572;2023-11-19T04:38:36;9.80;;;4.47;;
20229;SDS011;12195;55.790;37.572;2023-11-19T04:41:10;14.83;;;6.30;;
20229;SDS011;12195;55.790;37.572;2023-11-19T04:43:44;16.75;;;6.35;;
20229;SDS011;12195;55.790;37.572;2023-11-19T04:46:17;21.23;;;7.22;;
20229;SDS011;12195;55.790;37.572;2023-11-19T04:48:50;21.33;;;6.78;;
20229;SDS011;12195;55.790;37.572;2023-11-19T04:51:27;13.18;;;5.67;;
20229;SDS011;12195;55.790;37.572;2023-11-19T04:54:00;12.95;;;6.55;;
20229;SDS011;12195;55.790;37.572;2023-11-19T04:56:33;18.75;;;6.22;;
20229;SDS011;12195;55.790;37.572;2023-11-19T04:59:08;17.57;;;6.45;;
20229;SDS011;12195;55.790;37.572;2023-11-19T05:01:40;21.40;;;7.00;;
20229;SDS011;12195;55.790;37.572;2023-11-19T05:04:15;20.68;;;6.28;;
20229;SDS011;12195;55.790;37.572;2023-11-19T05:06:49;16.52;;;6.90;;
20229;SDS011;12195;55.790;37.572;2023-11-19T05:09:22;24.72;;;6.85;;
20229;SDS011;12195;55.790;37.572;2023-11-19T05:11:56;13.85;;;6.17;;
20229;SDS011;12195;55.790;37.572;2023-11-19T05:14:29;13.72;;;6.87;;
20229;SDS011;12195;55.790;37.572;2023-11-19T05:17:02;16.25;;;7.25;;
20229;SDS011;12195;55.790;37.572;2023-11-19T05:19:35;16.52;;;6.37;;
20229;SDS011;12195;55.790;37.572;2023-11-19T05:22:08;13.27;;;6.67;;
20229;SDS011;12195;55.790;37.572;2023-11-19T05:24:40;14.40;;;6.65;;
20229;SDS011;12195;55.790;37.572;2023-11-19T05:27:14;15.63;;;7.10;;
20229;SDS011;12195;55.790;37.572;2023-11-19T05:29:47;17.67;;;7.08;;
20229;SDS011;12195;55.790;37.572;2023-11-19T05:32:20;16.67;;;7.67;;
20229;SDS011;12195;55.790;37.572;2023-11-19T05:34:55;23.32;;;7.92;;
20229;SDS011;12195;55.790;37.572;2023-11-19T05:37:30;21.55;;;6.97;;
20229;SDS011;12195;55.790;37.572;2023-11-19T05:40:05;17.73;;;6.97;;
20229;SDS011;12195;55.790;37.572;2023-11-19T05:42:41;15.43;;;6.90;;
20229;SDS011;12195;55.790;37.572;2023-11-19T05:45:14;21.68;;;7.17;;
20229;SDS011;12195;55.790;37.572;2023-11-19T05:47:47;19.00;;;7.17;;
20229;SDS011;12195;55.790;37.572;2023-11-19T05:50:22;23.90;;;7.35;;
20229;SDS011;12195;55.790;37.572;2023-11-19T05:52:57;12.75;;;6.45;;
20229;SDS011;12195;55.790;37.572;2023-11-19T05:55:30;17.67;;;6.55;;
20229;SDS011;12195;55.790;37.572;2023-11-19T05:58:05;15.68;;;7.10;;
20229;SDS011;12195;55.790;37.572;2023-11-19T06:00:41;15.35;;;7.20;;
20229;SDS011;12195;55.790;37.572;2023-11-19T06:03:15;13.80;;;7.05;;
20229;SDS011;12195;55.790;37.572;2023-11-19T06:05:49;18.47;;;7.20;;
20229;SDS011;12195;55.790;37.572;2023-11-19T06:08:21;18.65;;;7.08;;
20229;SDS011;12195;55.790;37.572;2023-11-19T06:10:54;15.95;;;7.58;;
20229;SDS011;12195;55.790;37.572;2023-11-19T06:13:27;20.32;;;7.35;;
20229;SDS011;12195;55.790;37.572;2023-11-19T06:16:02;19.90;;;8.55;;
20229;SDS011;12195;55.790;37.572;2023-11-19T06:18:41;18.20;;;8.28;;
20229;SDS011;12195;55.790;37.572;2023-11-19T06:21:10;14.33;;;6.78;;
20229;SDS011;12195;55.790;37.572;2023-11-19T06:23:43;20.08;;;8.18;;
20229;SDS011;12195;55.790;37.572;2023-11-19T06:26:16;17.37;;;8.25;;
20229;SDS011;12195;55.790;37.572;2023-11-19T06:28:49;16.42;;;7.45;;
20229;SDS011;12195;55.790;37.572;2023-11-19T06:31:22;17.85;;;7.37;;
20229;SDS011;12195;55.790;37.572;2023-11-19T06:33:56;26.42;;;8.20;;
20229;SDS011;12195;55.790;37.572;2023-11-19T06:36:29;19.57;;;7.95;;
20229;SDS011;12195;55.790;37.572;2023-11-19T06:39:03;16.52;;;7.22;;
20229;SDS011;12195;55.790;37.572;2023-11-19T06:41:37;18.10;;;8.03;;
20229;SDS011;12195;55.790;37.572;2023-11-19T06:44:11;20.32;;;9.15;;
20229;SDS011;12195;55.790;37.572;2023-11-19T06:46:45;21.90;;;9.10;;
20229;SDS011;12195;55.790;37.572;2023-11-19T06:49:18;17.15;;;7.80;;
20229;SDS011;12195;55.790;37.572;2023-11-19T06:51:53;37.63;;;16.32;;
20229;SDS011;12195;55.790;37.572;2023-11-19T06:54:27;27.65;;;7.62;;
20229;SDS011;12195;55.790;37.572;2023-11-19T06:57:00;24.63;;;7.65;;
20229;SDS011;12195;55.790;37.572;2023-11-19T06:59:33;14.70;;;7.23;;
20229;SDS011;12195;55.790;37.572;2023-11-19T07:02:08;22.05;;;8.25;;
20229;SDS011;12195;55.790;37.572;2023-11-19T07:04:41;17.53;;;7.57;;
20229;SDS011;12195;55.790;37.572;2023-11-19T07:07:14;12.70;;;6.03;;
20229;SDS011;12195;55.790;37.572;2023-11-19T07:09:47;18.92;;;7.50;;
20229;SDS011;12195;55.790;37.572;2023-11-19T07:12:20;25.10;;;7.12;;
20229;SDS011;12195;55.790;37.572;2023-11-19T07:14:53;14.75;;;7.55;;
20229;SDS011;12195;55.790;37.572;2023-11-19T07:17:25;14.23;;;7.78;;
20229;SDS011;12195;55.790;37.572;2023-11-19T07:19:59;14.35;;;7.83;;
20229;SDS011;12195;55.790;37.572;2023-11-19T07:22:32;17.20;;;7.95;;
20229;SDS011;12195;55.790;37.572;2023-11-19T07:25:06;28.52;;;8.73;;
20229;SDS011;12195;55.790;37.572;2023-11-19T07:27:40;17.85;;;8.18;;
20229;SDS011;12195;55.790;37.572;2023-11-19T07:30:14;22.45;;;8.53;;
20229;SDS011;12195;55.790;37.572;2023-11-19T07:32:47;22.93;;;8.03;;
20229;SDS011;12195;55.790;37.572;2023-11-19T07:37:52;27.58;;;8.93;;
20229;SDS011;12195;55.790;37.572;2023-11-19T07:40:26;18.55;;;8.15;;
20229;SDS011;12195;55.790;37.572;2023-11-19T07:42:59;24.50;;;8.17;;
20229;SDS011;12195;55.790;37.572;2023-11-19T07:45:33;21.73;;;8.68;;
20229;SDS011;12195;55.790;37.572;2023-11-19T07:48:06;27.93;;;10.00;;
20229;SDS011;12195;55.790;37.572;2023-11-19T07:50:39;21.95;;;8.65;;
20229;SDS011;12195;55.790;37.572;2023-11-19T07:53:14;24.12;;;9.25;;
20229;SDS011;12195;55.790;37.572;2023-11-19T07:55:48;30.15;;;8.90;;
20229;SDS011;12195;55.790;37.572;2023-11-19T07:58:21;18.15;;;8.38;;
20229;SDS011;12195;55.790;37.572;2023-11-19T08:00:54;19.52;;;8.83;;
20229;SDS011;12195;55.790;37.572;2023-11-19T08:03:27;21.93;;;7.67;;
20229;SDS011;12195;55.790;37.572;2023-11-19T08:08:34;14.68;;;8.20;;
20229;SDS011;12195;55.790;37.572;2023-11-19T08:11:09;25.57;;;7.60;;
20229;SDS011;12195;55.790;37.572;2023-11-19T08:13:42;30.43;;;7.80;;
20229;SDS011;12195;55.790;37.572;2023-11-19T08:16:16;22.32;;;8.10;;
20229;SDS011;12195;55.790;37.572;2023-11-19T08:18:49;18.60;;;6.85;;
20229;SDS011;12195;55.790;37.572;2023-11-19T08:21:23;19.87;;;7.60;;
20229;SDS011;12195;55.790;37.572;2023-11-19T08:23:57;23.90;;;7.75;;
20229;SDS011;12195;55.790;37.572;2023-11-19T08:26:31;20.07;;;8.37;;
20229;SDS011;12195;55.790;37.572;2023-11-19T08:29:05;26.62;;;7.80;;
20229;SDS011;12195;55.790;37.572;2023-11-19T08:31:40;15.95;;;7.62;;
20229;SDS011;12195;55.790;37.572;2023-11-19T08:34:15;28.47;;;7.70;;
20229;SDS011;12195;55.790;37.572;2023-11-19T08:36:51;20.00;;;8.18;;
20229;SDS011;12195;55.790;37.572;2023-11-19T08:39:25;17.40;;;7.90;;
20229;SDS011;12195;55.790;37.572;2023-11-19T08:41:58;27.20;;;8.55;;
20229;SDS011;12195;55.790;37.572;2023-11-19T08:44:31;15.32;;;7.12;;
20229;SDS011;12195;55.790;37.572;2023-11-19T08:47:04;15.60;;;7.13;;
20229;SDS011;12195;55.790;37.572;2023-11-19T08:49:38;15.80;;;6.92;;
20229;SDS011;12195;55.790;37.572;2023-11-19T08:52:11;16.42;;;7.70;;
20229;SDS011;12195;55.790;37.572;2023-11-19T08:54:45;16.12;;;7.28;;
20229;SDS011;12195;55.790;37.572;2023-11-19T08:57:18;15.40;;;6.83;;
20229;SDS011;12195;55.790;37.572;2023-11-19T08:59:51;18.23;;;7.47;;
20229;SDS011;12195;55.790;37.572;2023-11-19T09:02:27;12.45;;;6.58;;
20229;SDS011;12195;55.790;37.572;2023-11-19T09:05:00;22.00;;;7.58;;
20229;SDS011;12195;55.790;37.572;2023-11-19T09:07:33;24.63;;;8.53;;
20229;SDS011;12195;55.790;37.572;2023-11-19T09:10:07;19.75;;;7.10;;
20229;SDS011;12195;55.790;37.572;2023-11-19T09:12:42;20.23;;;7.75;;
20229;SDS011;12195;55.790;37.572;2023-11-19T09:15:16;15.65;;;6.58;;
20229;SDS011;12195;55.790;37.572;2023-11-19T09:17:48;18.42;;;8.20;;
20229;SDS011;12195;55.790;37.572;2023-11-19T09:20:22;14.73;;;5.85;;
20229;SDS011;12195;55.790;37.572;2023-11-19T09:22:56;49.97;;;10.97;;
20229;SDS011;12195;55.790;37.572;2023-11-19T09:25:30;23.22;;;8.15;;
20229;SDS011;12195;55.790;37.572;2023-11-19T09:28:06;23.38;;;8.83;;
20229;SDS011;12195;55.790;37.572;2023-11-19T09:30:39;15.48;;;7.80;;
20229;SDS011;12195;55.790;37.572;2023-11-19T09:33:18;18.48;;;7.65;;
20229;SDS011;12195;55.790;37.572;2023-11-19T09:35:51;17.15;;;7.67;;
20229;SDS011;12195;55.790;37.572;2023-11-19T09:38:24;23.47;;;9.10;;
20229;SDS011;12195;55.790;37.572;2023-11-19T09:40:58;9.53;;;5.67;;
20229;SDS011;12195;55.790;37.572;2023-11-19T09:43:33;15.48;;;8.63;;
20229;SDS011;12195;55.790;37.572;2023-11-19T09:46:12;19.95;;;7.92;;
20229;SDS011;12195;55.790;37.572;2023-11-19T09:48:47;17.48;;;7.53;;
20229;SDS011;12195;55.790;37.572;2023-11-19T09:51:22;14.33;;;7.62;;
20229;SDS011;12195;55.790;37.572;2023-11-19T09:53:55;15.80;;;7.90;;
20229;SDS011;12195;55.790;37.572;2023-11-19T09:56:29;15.80;;;7.17;;
20229;SDS011;12195;55.790;37.572;2023-11-19T10:01:39;15.03;;;7.72;;
20229;SDS011;12195;55.790;37.572;2023-11-19T10:04:15;14.53;;;7.25;;
20229;SDS011;12195;55.790;37.572;2023-11-19T10:06:50;10.03;;;6.12;;
20229;SDS011;12195;55.790;37.572;2023-11-19T10:09:26;13.62;;;7.80;;
20229;SDS011;12195;55.790;37.572;2023-11-19T10:12:03;16.07;;;7.65;;
20229;SDS011;12195;55.790;37.572;2023-11-19T10:14:36;16.60;;;7.70;;
20229;SDS011;12195;55.790;37.572;2023-11-19T10:17:12;16.82;;;7.25;;
20229;SDS011;12195;55.790;37.572;2023-11-19T10:19:47;20.37;;;8.65;;
20229;SDS011;12195;55.790;37.572;2023-11-19T10:22:20;19.57;;;7.67;;
20229;SDS011;12195;55.790;37.572;2023-11-19T10:24:57;16.95;;;7.15;;
20229;SDS011;12195;55.790;37.572;2023-11-19T10:27:30;13.20;;;7.08;;
20229;SDS011;12195;55.790;37.572;2023-11-19T10:30:06;16.32;;;7.92;;
20229;SDS011;12195;55.790;37.572;2023-11-19T10:32:41;15.03;;;7.17;;
20229;SDS011;12195;55.790;37.572;2023-11-19T10:35:14;16.50;;;8.60;;
20229;SDS011;12195;55.790;37.572;2023-11-19T10:37:48;14.87;;;7.20;;
20229;SDS011;12195;55.790;37.572;2023-11-19T10:40:21;16.93;;;7.42;;
20229;SDS011;12195;55.790;37.572;2023-11-19T10:43:03;25.02;;;7.80;;
20229;SDS011;12195;55.790;37.572;2023-11-19T10:45:36;17.62;;;7.17;;
20229;SDS011;12195;55.790;37.572;2023-11-19T10:48:10;14.55;;;7.25;;
20229;SDS011;12195;55.790;37.572;2023-11-19T10:50:44;15.55;;;6.70;;
20229;SDS011;12195;55.790;37.572;2023-11-19T10:53:18;13.88;;;7.55;;
20229;SDS011;12195;55.790;37.572;2023-11-19T10:55:52;12.73;;;7.05;;
20229;SDS011;12195;55.790;37.572;2023-11-19T10:58:32;21.37;;;7.85;;
20229;SDS011;12195;55.790;37.572;2023-11-19T11:01:09;11.75;;;6.80;;
20229;SDS011;12195;55.790;37.572;2023-11-19T11:03:46;14.07;;;6.78;;
20229;SDS011;12195;55.790;37.572;2023-11-19T11:06:23;14.50;;;7.12;;
20229;SDS011;12195;55.790;37.572;2023-11-19T11:09:01;17.67;;;6.85;;
20229;SDS011;12195;55.790;37.572;2023-11-19T11:11:35;22.25;;;6.22;;
20229;SDS011;12195;55.790;37.572;2023-11-19T11:14:11;40.40;;;8.43;;
20229;SDS011;12195;55.790;37.572;2023-11-19T11:16:49;16.42;;;7.37;;
20229;SDS011;12195;55.790;37.572;2023-11-19T11:19:24;26.23;;;6.80;;
20229;SDS011;12195;55.790;37.572;2023-11-19T11:22:00;13.03;;;5.75;;
20229;SDS011;12195;55.790;37.572;2023-11-19T11:24:43;18.10;;;6.70;;
20229;SDS011;12195;55.790;37.572;2023-11-19T11:27:43;15.95;;;6.83;;
20229;SDS011;12195;55.790;37.572;2023-11-19T11:30:39;16.02;;;6.65;;
20229;SDS011;12195;55.790;37.572;2023-11-19T11:33:10;17.98;;;7.75;;
20229;SDS011;12195;55.790;37.572;2023-11-19T11:36:07;15.25;;;6.72;;
20229;SDS011;12195;55.790;37.572;2023-11-19T11:38:43;19.27;;;6.25;;
20229;SDS011;12195;55.790;37.572;2023-11-19T11:41:21;17.23;;;6.75;;
20229;SDS011;12195;55.790;37.572;2023-11-19T11:43:58;14.30;;;6.55;;
20229;SDS011;12195;55.790;37.572;2023-11-19T11:49:11;10.50;;;5.85;;
20229;SDS011;12195;55.790;37.572;2023-11-19T11:57:10;19.52;;;6.97;;
20229;SDS011;12195;55.790;37.572;2023-11-19T11:59:46;16.45;;;6.55;;
20229;SDS011;12195;55.790;37.572;2023-11-19T12:02:20;21.23;;;7.12;;
20229;SDS011;12195;55.790;37.572;2023-11-19T12:04:55;19.85;;;6.87;;
20229;SDS011;12195;55.790;37.572;2023-11-19T12:07:29;29.23;;;6.97;;
20229;SDS011;12195;55.790;37.572;2023-11-19T12:12:39;19.95;;;6.80;;
20229;SDS011;12195;55.790;37.572;2023-11-19T12:15:14;20.68;;;7.53;;
20229;SDS011;12195;55.790;37.572;2023-11-19T12:17:51;11.22;;;6.75;;
20229;SDS011;12195;55.790;37.572;2023-11-19T12:20:25;20.65;;;6.60;;
20229;SDS011;12195;55.790;37.572;2023-11-19T12:23:04;20.40;;;5.75;;
20229;SDS011;12195;55.790;37.572;2023-11-19T12:25:39;14.75;;;6.20;;
20229;SDS011;12195;55.790;37.572;2023-11-19T12:28:12;20.43;;;7.07;;
20229;SDS011;12195;55.790;37.572;2023-11-19T12:30:49;12.90;;;5.72;;
20229;SDS011;12195;55.790;37.572;2023-11-19T12:33:22;16.62;;;6.12;;
20229;SDS011;12195;55.790;37.572;2023-11-19T12:35:55;17.40;;;6.33;;
20229;SDS011;12195;55.790;37.572;2023-11-19T12:38:30;30.85;;;6.60;;
20229;SDS011;12195;55.790;37.572;2023-11-19T12:41:08;26.90;;;5.90;;
20229;SDS011;12195;55.790;37.572;2023-11-19T12:43:43;13.60;;;6.00;;
20229;SDS011;12195;55.790;37.572;2023-11-19T12:46:22;23.47;;;6.72;;
20229;SDS011;12195;55.790;37.572;2023-11-19T12:48:58;14.18;;;5.80;;
20229;SDS011;12195;55.790;37.572;2023-11-19T12:51:32;14.60;;;5.80;;
20229;SDS011;12195;55.790;37.572;2023-11-19T12:54:07;9.68;;;5.72;;
20229;SDS011;12195;55.790;37.572;2023-11-19T12:56:51;17.32;;;6.30;;
20229;SDS011;12195;55.790;37.572;2023-11-19T12:59:28;16.57;;;5.67;;
20229;SDS011;12195;55.790;37.572;2023-11-19T13:02:02;12.13;;;5.40;;
20229;SDS011;12195;55.790;37.572;2023-11-19T13:04:38;14.00;;;5.87;;
20229;SDS011;12195;55.790;37.572;2023-11-19T13:07:11;22.90;;;6.12;;
20229;SDS011;12195;55.790;37.572;2023-11-19T13:09:45;14.70;;;5.80;;
20229;SDS011;12195;55.790;37.572;2023-11-19T13:12:20;18.12;;;6.00;;
20229;SDS011;12195;55.790;37.572;2023-11-19T13:14:55;17.92;;;5.92;;
20229;SDS011;12195;55.790;37.572;2023-11-19T13:17:29;15.18;;;6.10;;
20229;SDS011;12195;55.790;37.572;2023-11-19T13:20:02;12.78;;;5.40;;
20229;SDS011;12195;55.790;37.572;2023-11-19T13:22:35;24.50;;;5.90;;
20229;SDS011;12195;55.790;37.572;2023-11-19T13:25:08;14.80;;;5.47;;
20229;SDS011;12195;55.790;37.572;2023-11-19T13:27:41;11.63;;;6.10;;
20229;SDS011;12195;55.790;37.572;2023-11-19T13:30:18;14.80;;;5.35;;
20229;SDS011;12195;55.790;37.572;2023-11-19T13:32:55;12.53;;;6.33;;
20229;SDS011;12195;55.790;37.572;2023-11-19T13:35:31;9.60;;;4.45;;
20229;SDS011;12195;55.790;37.572;2023-11-19T13:38:05;12.98;;;5.25;;
20229;SDS011;12195;55.790;37.572;2023-11-19T13:40:40;25.68;;;6.87;;
20229;SDS011;12195;55.790;37.572;2023-11-19T13:43:13;12.37;;;6.58;;
20229;SDS011;12195;55.790;37.572;2023-11-19T13:45:46;16.57;;;7.03;;
20229;SDS011;12195;55.790;37.572;2023-11-19T13:48:20;17.57;;;6.77;;
20229;SDS011;12195;55.790;37.572;2023-11-19T13:50:53;15.08;;;5.90;;
20229;SDS011;12195;55.790;37.572;2023-11-19T13:53:31;17.73;;;6.75;;
20229;SDS011;12195;55.790;37.572;2023-11-19T13:56:05;13.40;;;5.42;;
20229;SDS011;12195;55.790;37.572;2023-11-19T13:58:38;21.20;;;6.60;;
20229;SDS011;12195;55.790;37.572;2023-11-19T14:01:11;15.40;;;6.60;;
20229;SDS011;12195;55.790;37.572;2023-11-19T14:03:46;19.65;;;8.15;;
20229;SDS011;12195;55.790;37.572;2023-11-19T14:06:19;17.87;;;7.03;;
20229;SDS011;12195;55.790;37.572;2023-11-19T14:11:26;25.12;;;7.25;;
20229;SDS011;12195;55.790;37.572;2023-11-19T14:13:59;20.97;;;7.85;;
20229;SDS011;12195;55.790;37.572;2023-11-19T14:16:33;18.50;;;7.20;;
20229;SDS011;12195;55.790;37.572;2023-11-19T14:19:06;22.55;;;7.33;;
20229;SDS011;12195;55.790;37.572;2023-11-19T14:21:39;16.82;;;7.45;;
20229;SDS011;12195;55.790;37.572;2023-11-19T14:24:15;16.97;;;7.42;;
20229;SDS011;12195;55.790;37.572;2023-11-19T14:26:52;14.87;;;7.05;;
20229;SDS011;12195;55.790;37.572;2023-11-19T14:29:28;18.15;;;7.62;;
20229;SDS011;12195;55.790;37.572;2023-11-19T14:32:07;22.60;;;8.20;;
20229;SDS011;12195;55.790;37.572;2023-11-19T14:34:40;14.87;;;7.43;;
20229;SDS011;12195;55.790;37.572;2023-11-19T14:37:13;13.43;;;8.20;;
20229;SDS011;12195;55.790;37.572;2023-11-19T14:39:51;22.85;;;7.75;;
20229;SDS011;12195;55.790;37.572;2023-11-19T14:42:24;21.95;;;9.08;;
20229;SDS011;12195;55.790;37.572;2023-11-19T14:44:58;27.85;;;8.40;;
20229;SDS011;12195;55.790;37.572;2023-11-19T14:47:32;16.10;;;8.28;;
20229;SDS011;12195;55.790;37.572;2023-11-19T14:50:06;16.32;;;7.92;;
20229;SDS011;12195;55.790;37.572;2023-11-19T14:52:43;14.20;;;8.00;;
20229;SDS011;12195;55.790;37.572;2023-11-19T14:55:18;16.60;;;7.95;;
20229;SDS011;12195;55.790;37.572;2023-11-19T14:57:52;13.93;;;7.33;;
20229;SDS011;12195;55.790;37.572;2023-11-19T15:00:29;18.42;;;7.83;;
20229;SDS011;12195;55.790;37.572;2023-11-19T15:03:07;16.10;;;8.13;;
20229;SDS011;12195;55.790;37.572;2023-11-19T15:05:40;19.15;;;7.72;;
20229;SDS011;12195;55.790;37.572;2023-11-19T15:08:14;22.20;;;9.50;;
20229;SDS011;12195;55.790;37.572;2023-11-19T15:10:47;21.23;;;8.15;;
20229;SDS011;12195;55.790;37.572;2023-11-19T15:15:53;21.75;;;8.78;;
20229;SDS011;12195;55.790;37.572;2023-11-19T15:18:28;23.92;;;9.18;;
20229;SDS011;12195;55.790;37.572;2023-11-19T15:21:03;14.35;;;7.97;;
20229;SDS011;12195;55.790;37.572;2023-11-19T15:23:37;16.87;;;8.73;;
20229;SDS011;12195;55.790;37.572;2023-11-19T15:26:12;14.23;;;7.70;;